Alpha, Illinois
Current Conditions -  °F | °C
As of 2:52 PM on Sunday 21 Dec 2014 (Local Time) from KMLI Reporting Station
Overcast Overcast  
Wind Chill: 32°   Ceiling: 3200
Heat Index: 40°   Visibility: 8mi
Dew Point: 33°   Wind: 14mph
Humidity: 77%   Direction: 170°S
Pressure: 29.97"   Gusts: NA
Location:  41.19°N, 90.38°W
Report Text: KMLI 212052Z 17012KT 8SM OVC032 04/01 A2997 RMK AO2 SLP155 T00440006 56023
Loading
Personal Weather Stations






























Interactive Weather Map New forecast layout! Learn more

10-Day Weather Forecast

Advertisements
Track Severe Weather on mobile